createdAt,value
2018-11-07T00:01:40.765Z,21.33
2018-11-07T00:04:07.819Z,19.57
2018-11-07T00:06:35.172Z,20.70
2018-11-07T00:09:02.219Z,18.07
2018-11-07T00:11:29.296Z,18.77
2018-11-07T00:13:56.768Z,19.80
2018-11-07T00:16:23.979Z,17.77
2018-11-07T00:18:50.926Z,15.13
2018-11-07T00:21:17.974Z,16.17
2018-11-07T00:23:45.028Z,15.90
2018-11-07T00:26:12.097Z,18.97
2018-11-07T00:28:39.021Z,19.43
2018-11-07T00:31:06.067Z,19.60
2018-11-07T00:33:33.112Z,15.70
2018-11-07T00:36:00.172Z,18.77
2018-11-07T00:38:27.625Z,20.70
2018-11-07T00:40:54.670Z,18.17
2018-11-07T00:43:21.720Z,16.23
2018-11-07T00:45:48.971Z,18.43
2018-11-07T00:48:16.021Z,16.70
2018-11-07T00:50:43.075Z,18.10
2018-11-07T00:53:10.016Z,14.27
2018-11-07T00:55:37.069Z,15.30
2018-11-07T00:58:04.136Z,17.27
2018-11-07T01:00:31.165Z,19.30
2018-11-07T01:02:58.217Z,18.73
2018-11-07T01:05:25.260Z,17.53
2018-11-07T01:07:52.309Z,17.27
2018-11-07T01:10:19.362Z,17.60
2018-11-07T01:12:46.404Z,17.73
2018-11-07T01:15:13.358Z,16.47
2018-11-07T01:17:40.398Z,15.03
2018-11-07T01:20:07.447Z,16.70
2018-11-07T01:22:34.501Z,23.50
2018-11-07T01:25:01.545Z,17.23
2018-11-07T01:27:28.496Z,17.33
2018-11-07T01:29:55.539Z,19.07
2018-11-07T01:32:22.588Z,18.67
2018-11-07T01:34:49.642Z,18.53
2018-11-07T01:37:16.684Z,14.83
2018-11-07T01:39:43.734Z,16.23
2018-11-07T01:42:10.882Z,19.07
2018-11-07T01:44:37.830Z,21.70
2018-11-07T01:47:04.883Z,16.07
2018-11-07T01:49:31.935Z,16.90
2018-11-07T01:52:00.512Z,18.43
2018-11-07T01:54:27.560Z,17.57
2018-11-07T01:56:54.613Z,19.63
2018-11-07T01:59:22.786Z,21.23
2018-11-07T02:01:49.841Z,22.63
2018-11-07T02:04:16.881Z,15.37
2018-11-07T02:06:43.930Z,15.07
2018-11-07T02:09:10.984Z,15.43
2018-11-07T02:11:38.028Z,13.67
2018-11-07T02:14:05.338Z,15.23
2018-11-07T02:16:32.328Z,14.43
2018-11-07T02:18:59.377Z,17.33
2018-11-07T02:21:27.145Z,54.80
2018-11-07T02:23:54.198Z,16.53
2018-11-07T02:26:21.299Z,14.17
2018-11-07T02:28:48.595Z,16.60
2018-11-07T02:31:15.650Z,17.63
2018-11-07T02:33:42.693Z,15.43
2018-11-07T02:36:09.741Z,14.50
2018-11-07T02:38:36.797Z,18.17
2018-11-07T02:41:03.839Z,18.70
2018-11-07T02:43:30.890Z,18.40
2018-11-07T02:45:57.942Z,22.63
2018-11-07T02:48:24.985Z,15.97
2018-11-07T02:50:52.034Z,15.67
2018-11-07T02:53:19.098Z,18.10
2018-11-07T02:55:46.085Z,15.30
2018-11-07T02:58:13.083Z,20.67
2018-11-07T03:00:40.127Z,21.87
2018-11-07T03:03:07.175Z,19.10
2018-11-07T03:05:34.227Z,20.30
2018-11-07T03:08:01.271Z,16.43
2018-11-07T03:10:28.377Z,21.13
2018-11-07T03:12:55.374Z,16.30
2018-11-07T03:15:22.321Z,17.17
2018-11-07T03:17:49.369Z,22.33
2018-11-07T03:20:16.413Z,21.17
2018-11-07T03:22:43.460Z,20.03
2018-11-07T03:25:10.520Z,26.30
2018-11-07T03:27:37.557Z,18.30
2018-11-07T03:30:04.607Z,19.90
2018-11-07T03:32:31.663Z,22.23
2018-11-07T03:34:58.703Z,17.47
2018-11-07T03:37:26.271Z,19.97
2018-11-07T03:39:53.277Z,24.67
2018-11-07T03:42:20.362Z,19.83
2018-11-07T03:44:47.516Z,23.47
2018-11-07T03:47:34.377Z,19.90
2018-11-07T03:50:22.251Z,17.73
2018-11-07T03:52:49.313Z,19.30
2018-11-07T03:55:16.541Z,17.23
2018-11-07T03:57:43.584Z,21.63
2018-11-07T04:00:10.627Z,19.97
2018-11-07T04:02:38.346Z,22.03
2018-11-07T04:05:05.341Z,18.73
2018-11-07T04:07:32.387Z,24.17
2018-11-07T04:09:59.748Z,22.70
2018-11-07T04:12:26.792Z,22.30
2018-11-07T04:14:53.838Z,16.87
2018-11-07T04:17:21.093Z,20.63
2018-11-07T04:19:48.079Z,23.00
2018-11-07T04:22:15.088Z,20.93
2018-11-07T04:24:42.092Z,21.27
2018-11-07T04:27:09.082Z,16.27
2018-11-07T04:29:36.130Z,15.63
2018-11-07T04:32:03.124Z,21.03
2018-11-07T04:34:30.125Z,15.63
2018-11-07T04:36:57.178Z,16.30
2018-11-07T04:39:24.224Z,15.17
2018-11-07T04:41:51.271Z,16.60
2018-11-07T04:44:18.328Z,15.93
2018-11-07T04:46:45.675Z,16.40
2018-11-07T04:49:12.630Z,17.10
2018-11-07T04:51:39.670Z,18.57
2018-11-07T04:54:07.174Z,20.97
2018-11-07T04:56:36.121Z,16.20
2018-11-07T04:59:03.173Z,16.70
2018-11-07T05:01:30.843Z,15.97
2018-11-07T05:03:57.883Z,20.03
2018-11-07T05:06:24.769Z,14.27
2018-11-07T05:08:51.775Z,17.83
2018-11-07T05:11:18.829Z,17.10
2018-11-07T05:13:45.874Z,14.63
2018-11-07T05:16:12.920Z,16.60
2018-11-07T05:18:39.976Z,17.97
2018-11-07T05:21:08.147Z,15.40
2018-11-07T05:23:35.199Z,18.03
2018-11-07T05:26:03.106Z,15.10
2018-11-07T05:28:30.114Z,17.77
2018-11-07T05:30:57.159Z,15.73
2018-11-07T05:33:24.416Z,15.90
2018-11-07T05:35:51.459Z,15.57
2018-11-07T05:38:18.508Z,14.23
2018-11-07T05:40:45.913Z,16.83
2018-11-07T05:43:12.912Z,13.43
2018-11-07T05:45:39.961Z,14.93
2018-11-07T05:48:07.521Z,18.93
2018-11-07T05:50:34.571Z,15.97
2018-11-07T05:53:01.625Z,17.23
2018-11-07T05:55:28.973Z,15.67
2018-11-07T05:57:55.927Z,15.13
2018-11-07T06:00:22.969Z,16.97
2018-11-07T06:02:51.353Z,14.53
2018-11-07T06:05:18.398Z,17.20
2018-11-07T06:07:46.879Z,20.17
2018-11-07T06:10:13.930Z,19.70
2018-11-07T06:12:40.874Z,22.20
2018-11-07T06:15:07.923Z,19.00
2018-11-07T06:17:34.979Z,19.03
2018-11-07T06:20:02.021Z,20.30
2018-11-07T06:22:29.071Z,21.00
2018-11-07T06:24:56.198Z,17.10
2018-11-07T06:27:23.273Z,16.17
2018-11-07T06:29:50.317Z,22.37
2018-11-07T06:32:17.366Z,19.17
2018-11-07T06:34:44.420Z,16.50
2018-11-07T06:37:11.570Z,17.43
2018-11-07T06:39:38.614Z,18.80
2018-11-07T06:42:05.661Z,20.93
2018-11-07T06:44:32.681Z,19.03
2018-11-07T06:46:59.761Z,24.20
2018-11-07T06:49:26.814Z,25.07
2018-11-07T06:51:53.864Z,23.67
2018-11-07T06:54:20.907Z,24.27
2018-11-07T06:56:47.957Z,30.50
2018-11-07T06:59:15.360Z,26.50
2018-11-07T07:01:42.362Z,28.33
2018-11-07T07:04:09.408Z,28.90
2018-11-07T07:06:39.845Z,28.20
2018-11-07T07:09:06.915Z,26.90
2018-11-07T07:11:33.932Z,33.17
2018-11-07T07:14:00.985Z,28.23
2018-11-07T07:16:28.073Z,28.63
2018-11-07T07:18:56.823Z,25.77
2018-11-07T07:21:23.866Z,28.73
2018-11-07T07:23:50.921Z,24.47
2018-11-07T07:26:17.970Z,32.93
2018-11-07T07:28:45.013Z,27.57
2018-11-07T07:31:12.579Z,33.37
2018-11-07T07:33:39.689Z,32.13
2018-11-07T07:36:06.671Z,24.93
2018-11-07T07:38:33.725Z,20.43
2018-11-07T07:41:00.768Z,24.27
2018-11-07T07:43:28.169Z,24.50
2018-11-07T07:45:55.177Z,22.17
2018-11-07T07:48:22.168Z,22.77
2018-11-07T07:50:50.097Z,18.87
2018-11-07T07:53:17.202Z,20.33
2018-11-07T07:55:44.185Z,23.00
2018-11-07T07:58:11.239Z,25.10
2018-11-07T08:00:38.281Z,23.45
2018-11-07T08:03:05.331Z,21.42
2018-11-07T08:05:32.385Z,20.70
2018-11-07T08:07:59.375Z,20.62
2018-11-07T08:10:26.380Z,21.83
2018-11-07T08:12:53.423Z,17.27
2018-11-07T08:15:20.479Z,18.58
2018-11-07T08:17:47.419Z,21.55
2018-11-07T08:20:14.467Z,16.15
2018-11-07T08:22:41.520Z,15.77
2018-11-07T08:25:08.563Z,16.42
2018-11-07T08:27:35.612Z,17.15
2018-11-07T08:30:02.606Z,17.10
2018-11-07T08:32:29.608Z,16.37
2018-11-07T08:34:56.594Z,15.77
2018-11-07T08:37:23.602Z,18.35
2018-11-07T08:39:50.656Z,12.68
2018-11-07T08:42:17.721Z,13.00
2018-11-07T08:44:44.748Z,12.70
2018-11-07T08:47:11.801Z,13.45
2018-11-07T08:49:40.074Z,13.10
2018-11-07T08:52:07.132Z,15.40
2018-11-07T08:54:34.177Z,13.95
2018-11-07T08:57:01.221Z,14.63
2018-11-07T08:59:29.190Z,13.57
2018-11-07T09:01:56.260Z,15.50
2018-11-07T09:04:23.288Z,12.63
2018-11-07T09:06:50.853Z,11.27
2018-11-07T09:09:17.897Z,16.90
2018-11-07T09:11:44.945Z,13.57
2018-11-07T09:14:14.366Z,12.25
2018-11-07T09:16:41.396Z,13.82
2018-11-07T09:19:08.453Z,13.27
2018-11-07T09:21:37.594Z,15.00
2018-11-07T09:24:04.597Z,12.75
2018-11-07T09:26:31.641Z,12.30
2018-11-07T09:28:58.692Z,13.80
2018-11-07T09:31:25.747Z,20.65
2018-11-07T09:33:52.787Z,11.95
2018-11-07T09:36:19.834Z,15.20
2018-11-07T09:38:49.297Z,13.68
2018-11-07T09:41:16.291Z,14.73
2018-11-07T09:43:43.851Z,13.65
2018-11-07T09:46:12.952Z,12.73
2018-11-07T09:48:39.994Z,14.07
2018-11-07T09:51:07.045Z,13.32
2018-11-07T09:53:34.146Z,12.25
2018-11-07T09:56:01.141Z,16.73
2018-11-07T09:58:28.494Z,12.35
2018-11-07T10:00:55.552Z,13.65
2018-11-07T10:03:22.489Z,17.23
2018-11-07T10:05:49.543Z,11.02
2018-11-07T10:08:16.585Z,12.68
2018-11-07T10:10:43.541Z,11.05
2018-11-07T10:13:10.582Z,14.35
2018-11-07T10:15:37.635Z,13.48
2018-11-07T10:18:04.683Z,11.45
2018-11-07T10:20:31.779Z,12.50
2018-11-07T10:22:58.778Z,11.55
2018-11-07T10:25:25.831Z,13.62
2018-11-07T10:27:53.760Z,14.55
2018-11-07T10:30:20.605Z,14.35
2018-11-07T10:32:47.427Z,11.48
2018-11-07T10:35:14.941Z,12.65
2018-11-07T10:37:42.026Z,11.00
2018-11-07T10:40:09.549Z,10.93
2018-11-07T10:42:36.598Z,16.02
2018-11-07T10:45:03.651Z,14.65
2018-11-07T10:47:31.111Z,9.38
2018-11-07T10:49:58.154Z,13.73
2018-11-07T10:52:25.203Z,12.45
2018-11-07T10:54:52.563Z,9.30
2018-11-07T10:57:19.606Z,9.60
2018-11-07T10:59:46.656Z,11.40
2018-11-07T11:02:14.016Z,11.55
2018-11-07T11:04:41.008Z,13.38
2018-11-07T11:07:08.015Z,10.07
2018-11-07T11:09:35.567Z,13.60
2018-11-07T11:12:02.621Z,11.77
2018-11-07T11:14:29.667Z,12.65
2018-11-07T11:16:57.051Z,10.75
2018-11-07T11:19:24.073Z,14.05
2018-11-07T11:21:52.962Z,11.77
2018-11-07T11:24:20.009Z,10.88
2018-11-07T11:26:48.696Z,13.68
2018-11-07T11:29:15.950Z,11.05
2018-11-07T11:31:42.999Z,13.32
2018-11-07T11:34:10.068Z,12.05
2018-11-07T11:36:38.431Z,10.75
2018-11-07T11:39:05.475Z,13.40
2018-11-07T11:41:32.474Z,9.23
2018-11-07T11:43:59.471Z,12.40
2018-11-07T11:46:26.518Z,13.20
2018-11-07T11:48:53.479Z,11.48
2018-11-07T11:51:20.514Z,12.98
2018-11-07T11:53:47.509Z,10.65
2018-11-07T11:56:14.611Z,11.60
2018-11-07T11:58:42.077Z,11.93
2018-11-07T12:01:09.117Z,12.27
2018-11-07T12:03:36.171Z,14.70
2018-11-07T12:06:03.217Z,10.57
2018-11-07T12:08:30.364Z,11.23
2018-11-07T12:10:57.316Z,11.15
2018-11-07T12:13:24.393Z,14.77
2018-11-07T12:15:51.410Z,10.25
2018-11-07T12:18:18.468Z,9.95
2018-11-07T12:20:45.404Z,11.00
2018-11-07T12:23:12.459Z,8.68
2018-11-07T12:25:42.267Z,11.27
2018-11-07T12:28:09.315Z,8.63
2018-11-07T12:30:36.369Z,11.70
2018-11-07T12:33:04.134Z,12.27
2018-11-07T12:35:31.178Z,9.25
2018-11-07T12:37:58.230Z,12.88
2018-11-07T12:40:25.282Z,10.50
2018-11-07T12:42:52.767Z,11.50
2018-11-07T12:45:19.892Z,10.15
2018-11-07T12:47:46.939Z,13.20
2018-11-07T12:50:14.026Z,10.85
2018-11-07T12:52:41.133Z,13.45
2018-11-07T12:55:08.192Z,16.10
2018-11-07T12:57:36.225Z,13.43
2018-11-07T13:00:03.200Z,13.43
2018-11-07T13:02:30.254Z,12.43
2018-11-07T13:04:57.297Z,13.62
2018-11-07T13:07:27.936Z,11.88
2018-11-07T13:09:54.977Z,10.35
2018-11-07T13:12:22.544Z,12.63
2018-11-07T13:14:49.594Z,13.43
2018-11-07T13:17:16.636Z,8.05
2018-11-07T13:19:43.582Z,3.47
2018-11-07T13:22:11.700Z,15.65
2018-11-07T13:24:38.703Z,15.57
2018-11-07T13:27:05.759Z,13.88
2018-11-07T13:29:32.802Z,12.10
2018-11-07T13:31:59.850Z,16.48
2018-11-07T13:34:26.930Z,14.30
2018-11-07T13:36:54.092Z,9.43
2018-11-07T13:39:21.627Z,16.35
2018-11-07T13:41:48.454Z,11.27
2018-11-07T13:44:15.508Z,12.82
2018-11-07T13:46:42.552Z,10.68
2018-11-07T13:49:09.600Z,7.80
2018-11-07T13:51:36.654Z,9.45
2018-11-07T13:54:03.704Z,11.27
2018-11-07T13:56:30.746Z,10.57
2018-11-07T13:58:57.802Z,8.95
2018-11-07T14:01:24.791Z,10.88
2018-11-07T14:03:53.428Z,9.63
2018-11-07T14:06:20.481Z,10.95
2018-11-07T14:08:47.474Z,11.68
2018-11-07T14:11:14.478Z,12.27
2018-11-07T14:13:42.597Z,11.52
2018-11-07T14:16:09.615Z,10.32
2018-11-07T14:18:36.642Z,9.52
2018-11-07T14:21:05.124Z,13.40
2018-11-07T14:23:32.172Z,11.10
2018-11-07T14:25:59.074Z,9.75
2018-11-07T14:28:26.090Z,11.30
2018-11-07T14:30:53.770Z,7.80
2018-11-07T14:33:20.879Z,9.68
2018-11-07T14:35:47.928Z,9.80
2018-11-07T14:38:14.982Z,8.45
2018-11-07T14:40:42.025Z,8.02
2018-11-07T14:43:09.074Z,11.18
2018-11-07T14:45:36.127Z,9.52
2018-11-07T14:48:03.171Z,7.62
2018-11-07T14:50:30.122Z,8.80
2018-11-07T14:52:57.166Z,7.12
2018-11-07T14:55:24.213Z,7.43
2018-11-07T14:57:51.267Z,8.20
2018-11-07T15:00:18.314Z,9.70
2018-11-07T15:02:45.392Z,11.23
2018-11-07T15:05:13.125Z,7.75
2018-11-07T15:07:41.505Z,7.85
2018-11-07T15:10:08.559Z,6.30
2018-11-07T15:12:35.604Z,7.03
2018-11-07T15:15:02.652Z,7.05
2018-11-07T15:17:29.705Z,5.85
2018-11-07T15:19:56.748Z,6.07
2018-11-07T15:22:23.798Z,6.18
2018-11-07T15:24:50.869Z,4.68
2018-11-07T15:27:17.894Z,5.60
2018-11-07T15:29:44.943Z,5.45
2018-11-07T15:32:12.710Z,7.85
2018-11-07T15:34:39.764Z,8.13
2018-11-07T15:37:08.041Z,6.90
2018-11-07T15:39:35.102Z,5.40
2018-11-07T15:42:02.139Z,5.97
2018-11-07T15:44:29.185Z,6.70
2018-11-07T15:46:56.232Z,9.60
2018-11-07T15:49:23.288Z,6.70
2018-11-07T15:51:50.352Z,10.63
2018-11-07T15:54:17.374Z,8.63
2018-11-07T15:56:44.427Z,10.77
2018-11-07T15:59:12.906Z,9.55
2018-11-07T16:01:39.853Z,8.20
2018-11-07T16:04:06.900Z,8.30
2018-11-07T16:06:34.360Z,9.18
2018-11-07T16:09:01.414Z,14.93
2018-11-07T16:11:28.458Z,12.07
2018-11-07T16:13:55.861Z,11.38
2018-11-07T16:16:22.865Z,9.23
2018-11-07T16:18:49.909Z,10.60
2018-11-07T16:21:17.367Z,10.70
2018-11-07T16:23:44.417Z,9.07
2018-11-07T16:26:11.470Z,9.48
2018-11-07T16:28:38.965Z,11.55
2018-11-07T16:31:06.484Z,12.57
2018-11-07T16:33:33.536Z,8.85
2018-11-07T16:36:01.043Z,14.75
2018-11-07T16:38:28.039Z,13.62
2018-11-07T16:40:55.159Z,17.05
2018-11-07T16:43:22.141Z,16.37
2018-11-07T16:45:49.185Z,21.00
2018-11-07T16:48:16.271Z,16.90
2018-11-07T16:50:43.295Z,15.18
2018-11-07T16:53:11.150Z,15.00
2018-11-07T16:55:38.211Z,11.38
2018-11-07T16:58:05.248Z,13.13
2018-11-07T17:00:32.297Z,28.52
2018-11-07T17:02:59.349Z,21.37
2018-11-07T17:05:26.393Z,20.35
2018-11-07T17:07:53.442Z,17.58
2018-11-07T17:10:22.174Z,19.70
2018-11-07T17:12:49.586Z,19.15
2018-11-07T17:15:16.643Z,17.67
2018-11-07T17:17:44.298Z,14.27
2018-11-07T17:20:11.350Z,18.73
2018-11-07T17:22:39.214Z,17.65
2018-11-07T17:25:06.264Z,18.92
2018-11-07T17:27:33.317Z,19.85
2018-11-07T17:30:00.670Z,44.38
2018-11-07T17:32:27.826Z,16.67
2018-11-07T17:34:55.640Z,15.27
2018-11-07T17:37:22.785Z,18.15
2018-11-07T17:39:50.194Z,18.98
2018-11-07T17:42:17.242Z,16.33
2018-11-07T17:44:44.395Z,44.45
2018-11-07T17:47:11.647Z,22.00
2018-11-07T17:49:38.697Z,20.85
2018-11-07T17:52:10.144Z,17.23
2018-11-07T17:54:37.200Z,15.35
2018-11-07T17:57:04.351Z,18.02
2018-11-07T17:59:31.395Z,20.73
2018-11-07T18:01:58.445Z,22.05
2018-11-07T18:04:25.696Z,19.10
2018-11-07T18:06:52.744Z,18.50
2018-11-07T18:09:21.643Z,22.58
2018-11-07T18:11:48.685Z,23.23
2018-11-07T18:14:16.042Z,20.65
2018-11-07T18:16:43.095Z,19.25
2018-11-07T18:19:10.149Z,19.27
2018-11-07T18:21:37.597Z,21.23
2018-11-07T18:24:05.163Z,17.73
2018-11-07T18:26:32.208Z,17.90
2018-11-07T18:28:59.259Z,19.90
2018-11-07T18:31:26.310Z,20.90
2018-11-07T18:33:53.769Z,20.90
2018-11-07T18:36:20.815Z,21.05
2018-11-07T18:38:47.811Z,21.15
2018-11-07T18:41:14.832Z,94.40
2018-11-07T18:43:43.186Z,17.98
2018-11-07T18:46:10.234Z,244.07
2018-11-07T18:48:37.292Z,28.05
2018-11-07T18:51:04.330Z,46.33
2018-11-07T18:53:32.350Z,86.65
2018-11-07T18:55:59.358Z,73.47
2018-11-07T18:58:26.665Z,58.77
2018-11-07T19:00:53.657Z,50.42
2018-11-07T19:03:20.700Z,46.78
2018-11-07T19:05:48.574Z,54.65
2018-11-07T19:08:15.616Z,36.17
2018-11-07T19:10:42.786Z,28.35
2018-11-07T19:13:11.780Z,18.70
2018-11-07T19:15:39.424Z,22.65
2018-11-07T19:18:06.375Z,20.40
2018-11-07T19:20:33.433Z,59.33
2018-11-07T19:23:00.473Z,58.80
2018-11-07T19:25:27.517Z,22.33
2018-11-07T19:27:56.512Z,658.40
2018-11-07T19:30:24.892Z,1492.75
2018-11-07T19:32:51.956Z,984.95
2018-11-07T19:35:19.003Z,22.42
2018-11-07T19:37:46.959Z,57.03
2018-11-07T19:40:17.357Z,19.83
2018-11-07T19:42:44.640Z,24.65
2018-11-07T19:45:14.509Z,325.10
2018-11-07T19:47:43.767Z,491.77
2018-11-07T19:50:14.067Z,211.77
2018-11-07T19:52:45.209Z,321.15
2018-11-07T19:55:12.419Z,271.30
2018-11-07T19:57:39.836Z,312.60
2018-11-07T20:00:06.882Z,218.53
2018-11-07T20:02:33.937Z,267.23
2018-11-07T20:05:04.976Z,321.42
2018-11-07T20:07:32.330Z,468.10
2018-11-07T20:09:59.340Z,427.37
2018-11-07T20:12:26.426Z,153.17
2018-11-07T20:14:53.686Z,158.53
2018-11-07T20:17:22.177Z,105.30
2018-11-07T20:19:49.215Z,244.57
2018-11-07T20:22:16.565Z,136.97
2018-11-07T20:24:43.615Z,127.80
2018-11-07T20:27:10.767Z,107.83
2018-11-07T20:29:38.634Z,116.20
2018-11-07T20:32:05.631Z,49.07
2018-11-07T20:34:32.737Z,50.30
2018-11-07T20:37:00.209Z,31.37
2018-11-07T20:39:27.193Z,50.03
2018-11-07T20:41:54.430Z,82.37
2018-11-07T20:44:22.352Z,112.93
2018-11-07T20:46:52.372Z,126.43
2018-11-07T20:49:19.417Z,307.33
2018-11-07T20:51:47.185Z,636.97
2018-11-07T20:54:14.230Z,338.77
2018-11-07T20:56:41.303Z,137.50
2018-11-07T20:59:09.663Z,23.20
2018-11-07T21:01:37.176Z,83.53
2018-11-07T21:04:04.168Z,152.50
2018-11-07T21:06:31.319Z,129.03
2018-11-07T21:08:58.467Z,106.33
2018-11-07T21:11:25.517Z,94.37
2018-11-07T21:13:53.491Z,114.87
2018-11-07T21:16:20.433Z,208.53
2018-11-07T21:18:47.487Z,31.00
2018-11-07T21:21:14.529Z,212.17
2018-11-07T21:23:41.578Z,81.73
2018-11-07T21:26:08.632Z,49.00
2018-11-07T21:28:35.674Z,36.97
2018-11-07T21:31:02.803Z,39.10
2018-11-07T21:33:30.084Z,39.73
2018-11-07T21:35:57.129Z,39.20
2018-11-07T21:38:24.177Z,38.90
2018-11-07T21:40:51.230Z,36.97
2018-11-07T21:43:18.274Z,36.20
2018-11-07T21:45:45.322Z,35.67
2018-11-07T21:48:12.376Z,39.77
2018-11-07T21:50:39.419Z,42.53
2018-11-07T21:53:06.469Z,39.97
2018-11-07T21:55:33.522Z,46.27
2018-11-07T21:58:00.565Z,38.17
2018-11-07T22:00:27.836Z,38.10
2018-11-07T22:02:54.942Z,33.83
2018-11-07T22:05:22.126Z,36.00
2018-11-07T22:07:49.170Z,36.83
2018-11-07T22:10:16.217Z,33.20
2018-11-07T22:12:43.272Z,40.03
2018-11-07T22:15:10.520Z,32.43
2018-11-07T22:17:37.580Z,31.47
2018-11-07T22:20:04.617Z,36.87
2018-11-07T22:22:31.665Z,48.87
2018-11-07T22:24:58.721Z,29.07
2018-11-07T22:27:26.581Z,33.90
2018-11-07T22:29:53.528Z,33.13
2018-11-07T22:32:20.579Z,28.63
2018-11-07T22:34:47.630Z,36.77
2018-11-07T22:37:14.674Z,36.73
2018-11-07T22:39:41.723Z,29.97
2018-11-07T22:42:08.775Z,38.17
2018-11-07T22:44:35.819Z,183.80
2018-11-07T22:47:02.869Z,52.83
2018-11-07T22:49:29.921Z,143.07
2018-11-07T22:51:57.688Z,204.63
2018-11-07T22:54:24.730Z,30.40
2018-11-07T22:56:51.779Z,22.70
2018-11-07T22:59:20.372Z,29.67
2018-11-07T23:01:47.413Z,174.77
2018-11-07T23:04:14.462Z,184.20
2018-11-07T23:06:43.150Z,28.50
2018-11-07T23:09:10.202Z,23.70
2018-11-07T23:11:37.245Z,26.90
2018-11-07T23:14:04.909Z,27.47
2018-11-07T23:16:31.964Z,24.97
2018-11-07T23:18:59.006Z,28.47
2018-11-07T23:21:26.055Z,137.67
2018-11-07T23:23:53.108Z,26.33
2018-11-07T23:26:20.151Z,25.20
2018-11-07T23:28:47.866Z,23.53
2018-11-07T23:31:14.871Z,22.40
2018-11-07T23:33:41.814Z,22.77
2018-11-07T23:36:09.122Z,23.93
2018-11-07T23:38:38.675Z,25.00
2018-11-07T23:41:24.131Z,25.63
2018-11-07T23:44:09.176Z,24.73
2018-11-07T23:46:36.179Z,26.90
2018-11-07T23:49:03.115Z,22.47
2018-11-07T23:51:30.061Z,24.50
2018-11-07T23:53:57.114Z,29.13
2018-11-07T23:56:24.164Z,26.10
2018-11-07T23:58:51.207Z,27.33
